createdAt,value
2023-01-12T00:01:27.172Z,99451.94
2023-01-12T00:03:54.503Z,99444.97
2023-01-12T00:06:22.115Z,99433.38
2023-01-12T00:08:49.899Z,99447.69
2023-01-12T00:11:17.852Z,99435.00
2023-01-12T00:13:45.420Z,99448.53
2023-01-12T00:16:39.579Z,99440.53
2023-01-12T00:19:33.551Z,99461.88
2023-01-12T00:22:14.705Z,99471.47
2023-01-12T00:24:44.255Z,99451.78
2023-01-12T00:27:14.651Z,99468.78
2023-01-12T00:29:41.455Z,99460.22
2023-01-12T00:32:14.435Z,99458.78
2023-01-12T00:34:41.760Z,99473.72
2023-01-12T00:37:09.128Z,99462.66
2023-01-12T00:39:40.400Z,99458.22
2023-01-12T00:42:26.514Z,99450.81
2023-01-12T00:45:11.971Z,99454.94
2023-01-12T00:47:38.801Z,99456.56
2023-01-12T00:50:05.862Z,99443.88
2023-01-12T00:52:32.455Z,99457.38
2023-01-12T00:54:59.952Z,99439.75
2023-01-12T00:57:28.464Z,99458.41
2023-01-12T00:59:58.377Z,99457.38
2023-01-12T01:02:25.682Z,99463.97
2023-01-12T01:04:52.419Z,99443.03
2023-01-12T01:07:21.804Z,99449.78
2023-01-12T01:09:49.209Z,99454.09
2023-01-12T01:12:17.765Z,99449.16
2023-01-12T01:14:45.005Z,99457.81
2023-01-12T01:17:11.722Z,99450.41
2023-01-12T01:19:38.497Z,99455.94
2023-01-12T01:22:05.258Z,99454.09
2023-01-12T01:24:31.928Z,99446.50
2023-01-12T01:26:58.643Z,99449.00
2023-01-12T01:29:25.248Z,99457.16
2023-01-12T01:31:54.985Z,99442.22
2023-01-12T01:34:21.623Z,99448.75
2023-01-12T01:36:48.190Z,99446.09
2023-01-12T01:39:14.936Z,99449.81
2023-01-12T01:41:43.677Z,99448.13
2023-01-12T01:44:29.290Z,99442.25
2023-01-12T01:47:00.097Z,99443.41
2023-01-12T01:49:29.966Z,99435.41
2023-01-12T01:52:06.300Z,99441.16
2023-01-12T01:54:38.895Z,99447.50
2023-01-12T01:57:06.476Z,99447.13
2023-01-12T01:59:34.937Z,99445.03
2023-01-12T02:02:02.761Z,99444.63
2023-01-12T02:04:30.311Z,99435.81
2023-01-12T02:06:57.782Z,99438.69
2023-01-12T02:09:28.321Z,99436.03
2023-01-12T02:12:13.850Z,99426.81
2023-01-12T02:15:00.001Z,99434.19
2023-01-12T02:18:03.847Z,99426.00
2023-01-12T02:20:48.419Z,99424.34
2023-01-12T02:23:30.396Z,99429.91
2023-01-12T02:26:08.854Z,99437.06
2023-01-12T02:28:46.611Z,99431.97
2023-01-12T02:31:23.014Z,99428.88
2023-01-12T02:33:54.627Z,99411.44
2023-01-12T02:36:45.853Z,99407.56
2023-01-12T02:39:24.029Z,99418.22
2023-01-12T02:42:25.941Z,99415.94
2023-01-12T02:45:00.625Z,99408.13
2023-01-12T02:47:48.220Z,99433.94
2023-01-12T02:50:20.444Z,99431.25
2023-01-12T02:52:48.799Z,99439.44
2023-01-12T02:55:16.469Z,99435.38
2023-01-12T02:57:43.364Z,99422.06
2023-01-12T03:00:10.616Z,99434.75
2023-01-12T03:02:38.200Z,99426.63
2023-01-12T03:05:06.013Z,99425.41
2023-01-12T03:07:33.116Z,99437.84
2023-01-12T03:10:07.347Z,99444.63
2023-01-12T03:12:35.264Z,99440.56
2023-01-12T03:15:04.985Z,99438.88
2023-01-12T03:17:50.659Z,99438.28
2023-01-12T03:20:24.299Z,99446.72
2023-01-12T03:22:54.803Z,99444.66
2023-01-12T03:25:22.215Z,99442.41
2023-01-12T03:27:52.015Z,99436.25
2023-01-12T03:30:27.065Z,99436.66
2023-01-12T03:32:53.915Z,99445.66
2023-01-12T03:35:25.985Z,99431.09
2023-01-12T03:38:00.071Z,99438.09
2023-01-12T03:40:28.167Z,99430.50
2023-01-12T03:43:04.179Z,99439.53
2023-01-12T03:45:39.945Z,99439.75
2023-01-12T03:48:07.679Z,99455.94
2023-01-12T03:50:40.250Z,99437.91
2023-01-12T03:53:07.812Z,99441.41
2023-01-12T03:55:35.448Z,99448.38
2023-01-12T03:58:02.345Z,99435.25
2023-01-12T04:00:29.493Z,99443.84
2023-01-12T04:03:24.471Z,99434.41
2023-01-12T04:05:51.442Z,99445.69
2023-01-12T04:08:18.680Z,99444.66
2023-01-12T04:10:45.466Z,99441.78
2023-01-12T04:13:12.115Z,99436.03
2023-01-12T04:15:42.544Z,99432.34
2023-01-12T04:18:12.799Z,99429.06
2023-01-12T04:20:39.625Z,99443.22
2023-01-12T04:23:09.766Z,99426.63
2023-01-12T04:25:36.824Z,99429.91
2023-01-12T04:28:04.459Z,99448.78
2023-01-12T04:30:33.215Z,99425.19
2023-01-12T04:33:00.681Z,99421.50
2023-01-12T04:35:27.737Z,99429.72
2023-01-12T04:37:57.621Z,99443.66
2023-01-12T04:40:25.124Z,99428.47
2023-01-12T04:43:08.531Z,99437.50
2023-01-12T04:45:38.227Z,99426.84
2023-01-12T04:48:06.986Z,99425.38
2023-01-12T04:50:33.924Z,99414.94
2023-01-12T04:53:08.137Z,99393.66
2023-01-12T04:55:39.398Z,99405.72
2023-01-12T04:58:06.140Z,99386.25
2023-01-12T05:00:33.110Z,99405.31
2023-01-12T05:03:02.444Z,99399.16
2023-01-12T05:05:33.470Z,99395.28
2023-01-12T05:08:21.188Z,99390.75
2023-01-12T05:10:58.323Z,99387.69
2023-01-12T05:13:27.337Z,99373.75
2023-01-12T05:15:54.045Z,99379.06
2023-01-12T05:18:20.729Z,99378.25
2023-01-12T05:20:47.331Z,99376.19
2023-01-12T05:23:14.036Z,99378.06
2023-01-12T05:25:40.636Z,99370.69
2023-01-12T05:28:07.305Z,99370.69
2023-01-12T05:30:34.053Z,99368.22
2023-01-12T05:33:00.867Z,99373.75
2023-01-12T05:35:27.551Z,99351.41
2023-01-12T05:37:57.387Z,99339.09
2023-01-12T05:40:24.566Z,99333.78
2023-01-12T05:43:12.733Z,99317.78
2023-01-12T05:45:39.394Z,99323.34
2023-01-12T05:48:06.561Z,99315.13
2023-01-12T05:50:33.313Z,99298.53
2023-01-12T05:53:12.196Z,99297.91
2023-01-12T05:55:38.977Z,99319.25
2023-01-12T05:58:05.885Z,99300.78
2023-01-12T06:00:32.802Z,99290.94
2023-01-12T06:02:59.426Z,99270.47
2023-01-12T06:05:26.101Z,99264.50
2023-01-12T06:07:52.851Z,99276.41
2023-01-12T06:10:19.769Z,99268.41
2023-01-12T06:13:08.590Z,99249.56
2023-01-12T06:15:35.397Z,99257.31
2023-01-12T06:18:02.075Z,99267.97
2023-01-12T06:20:28.756Z,99257.56
2023-01-12T06:22:55.652Z,99244.84
2023-01-12T06:25:22.295Z,99236.63
2023-01-12T06:27:48.934Z,99244.63
2023-01-12T06:30:15.644Z,99233.16
2023-01-12T06:32:42.302Z,99236.03
2023-01-12T06:35:18.753Z,99228.66
2023-01-12T06:37:46.511Z,99228.06
2023-01-12T06:40:13.537Z,99211.66
2023-01-12T06:42:42.112Z,99215.56
2023-01-12T06:45:09.793Z,99220.28
2023-01-12T06:47:44.971Z,99215.97
2023-01-12T06:50:12.250Z,99217.00
2023-01-12T06:52:38.959Z,99205.13
2023-01-12T06:55:05.698Z,99193.88
2023-01-12T06:57:32.415Z,99188.13
2023-01-12T06:59:59.033Z,99200.00
2023-01-12T07:02:25.746Z,99170.31
2023-01-12T07:04:54.584Z,99179.97
2023-01-12T07:07:21.196Z,99201.47
2023-01-12T07:09:47.808Z,99158.66
2023-01-12T07:12:14.483Z,99192.66
2023-01-12T07:14:41.162Z,99152.31
2023-01-12T07:17:07.814Z,99158.66
2023-01-12T07:19:36.791Z,99166.88
2023-01-12T07:22:05.633Z,99158.06
2023-01-12T07:24:36.288Z,99138.63
2023-01-12T07:27:05.060Z,99149.25
2023-01-12T07:29:31.716Z,99135.72
2023-01-12T07:31:58.308Z,99132.25
2023-01-12T07:34:24.915Z,99127.56
2023-01-12T07:36:51.717Z,99126.34
2023-01-12T07:39:18.503Z,99119.56
2023-01-12T07:42:03.709Z,99139.03
2023-01-12T07:44:32.492Z,99180.59
2023-01-12T07:47:01.915Z,99149.88
2023-01-12T07:49:28.640Z,99140.06
2023-01-12T07:51:55.928Z,99128.38
2023-01-12T07:54:22.983Z,99137.19
2023-01-12T07:56:49.699Z,99132.28
2023-01-12T07:59:16.413Z,99181.00
2023-01-12T08:01:43.101Z,99175.66
2023-01-12T08:04:09.777Z,99171.19
2023-01-12T08:06:36.614Z,99147.22
2023-01-12T08:09:08.570Z,99168.69
2023-01-12T08:11:35.253Z,99138.63
2023-01-12T08:14:02.242Z,99157.47
2023-01-12T08:16:36.495Z,99151.72
2023-01-12T08:19:07.727Z,99182.44
2023-01-12T08:21:41.834Z,99168.28
2023-01-12T08:24:09.470Z,99171.81
2023-01-12T08:26:39.209Z,99168.31
2023-01-12T08:29:18.417Z,99186.72
2023-01-12T08:31:45.121Z,99177.31
2023-01-12T08:34:11.892Z,99178.16
2023-01-12T08:36:38.867Z,99172.97
2023-01-12T08:39:05.500Z,99192.84
2023-01-12T08:41:37.408Z,99200.41
2023-01-12T08:44:08.744Z,99207.00
2023-01-12T08:46:39.621Z,99213.13
2023-01-12T08:49:11.478Z,99220.31
2023-01-12T08:51:41.154Z,99212.50
2023-01-12T08:54:09.748Z,99224.22
2023-01-12T08:56:36.828Z,99216.81
2023-01-12T08:59:04.328Z,99223.38
2023-01-12T09:01:31.152Z,99227.69
2023-01-12T09:03:58.492Z,99233.41
2023-01-12T09:06:32.976Z,99244.28
2023-01-12T09:09:01.600Z,99248.75
2023-01-12T09:11:29.564Z,99261.06
2023-01-12T09:13:58.581Z,99260.84
2023-01-12T09:16:30.429Z,99271.91
2023-01-12T09:18:57.399Z,99273.34
2023-01-12T09:21:25.965Z,99303.47
2023-01-12T09:23:53.236Z,99330.31
2023-01-12T09:26:24.516Z,99335.03
2023-01-12T09:28:51.736Z,99349.38
2023-01-12T09:31:21.019Z,99376.22
2023-01-12T09:33:47.842Z,99419.25
2023-01-12T09:36:19.468Z,99435.44
2023-01-12T09:38:47.145Z,99455.72
2023-01-12T09:41:45.996Z,99470.50
2023-01-12T09:44:34.368Z,99473.16
2023-01-12T09:47:03.389Z,99472.34
2023-01-12T09:49:34.673Z,99478.28
2023-01-12T09:52:16.083Z,99491.25
2023-01-12T09:54:43.309Z,99486.53
2023-01-12T09:57:47.581Z,99490.81
2023-01-12T10:00:18.872Z,99495.97
2023-01-12T10:02:55.209Z,99488.97
2023-01-12T10:05:40.189Z,99508.88
2023-01-12T10:08:14.144Z,99503.75
2023-01-12T10:10:45.357Z,99506.22
2023-01-12T10:13:14.279Z,99513.19
2023-01-12T10:15:46.835Z,99521.41
2023-01-12T10:18:21.511Z,99516.66
2023-01-12T10:20:48.133Z,99543.34
2023-01-12T10:23:16.958Z,99526.94
2023-01-12T10:25:47.559Z,99543.97
2023-01-12T10:28:18.460Z,99533.09
2023-01-12T10:30:45.408Z,99533.94
2023-01-12T10:33:14.014Z,99542.75
2023-01-12T10:36:02.081Z,99540.50
2023-01-12T10:38:38.191Z,99519.53
2023-01-12T10:41:09.395Z,99548.28
2023-01-12T10:43:37.189Z,99549.72
2023-01-12T10:46:15.754Z,99564.47
2023-01-12T10:48:47.847Z,99559.16
2023-01-12T10:51:27.948Z,99563.88
2023-01-12T10:54:01.792Z,99549.28
2023-01-12T10:56:35.669Z,99560.00
2023-01-12T10:59:19.768Z,99587.47
2023-01-12T11:01:53.421Z,99567.78
2023-01-12T11:04:26.494Z,99560.59
2023-01-12T11:07:16.620Z,99575.34
2023-01-12T11:09:43.956Z,99576.38
2023-01-12T11:12:23.722Z,99570.81
2023-01-12T11:15:22.649Z,99566.94
2023-01-12T11:17:58.398Z,99571.03
2023-01-12T11:20:42.795Z,99576.78
2023-01-12T11:23:23.774Z,99584.59
2023-01-12T11:25:54.946Z,99599.34
2023-01-12T11:28:35.153Z,99596.28
2023-01-12T11:31:07.690Z,99600.81
2023-01-12T11:33:37.197Z,99612.06
2023-01-12T11:36:03.894Z,99613.94
2023-01-12T11:38:43.626Z,99604.69
2023-01-12T11:41:21.427Z,99607.56
2023-01-12T11:44:26.861Z,99607.97
2023-01-12T11:47:14.821Z,99623.19
2023-01-12T11:49:44.558Z,99612.91
2023-01-12T11:52:11.784Z,99636.94
2023-01-12T11:54:39.371Z,99617.19
2023-01-12T11:57:27.917Z,99611.66
2023-01-12T12:00:03.885Z,99613.09
2023-01-12T12:03:02.885Z,99619.69
2023-01-12T12:05:32.687Z,99620.50
2023-01-12T12:08:14.344Z,99615.34
2023-01-12T12:10:41.011Z,99611.44
2023-01-12T12:13:26.766Z,99607.72
2023-01-12T12:16:18.376Z,99614.53
2023-01-12T12:19:06.529Z,99620.09
2023-01-12T12:21:36.164Z,99610.00
2023-01-12T12:24:36.887Z,99627.03
2023-01-12T12:27:06.573Z,99614.53
2023-01-12T12:29:45.389Z,99621.94
2023-01-12T12:32:20.892Z,99622.53
2023-01-12T12:35:32.321Z,99620.88
2023-01-12T12:38:20.801Z,99629.91
2023-01-12T12:41:34.071Z,99627.00
2023-01-12T12:44:54.791Z,99634.44
2023-01-12T12:47:34.800Z,99621.50
2023-01-12T12:50:03.933Z,99630.69
2023-01-12T12:52:34.856Z,99631.16
2023-01-12T12:55:02.446Z,99638.94
2023-01-12T12:57:29.293Z,99638.94
2023-01-12T12:59:56.992Z,99634.44
2023-01-12T13:02:38.774Z,99634.63
2023-01-12T13:05:08.603Z,99631.94
2023-01-12T13:07:40.992Z,99626.19
2023-01-12T13:10:21.145Z,99631.75
2023-01-12T13:12:56.915Z,99626.19
2023-01-12T13:15:29.384Z,99622.66
2023-01-12T13:17:56.236Z,99638.69
2023-01-12T13:20:26.796Z,99641.78
2023-01-12T13:22:55.866Z,99640.94
2023-01-12T13:25:28.175Z,99628.00
2023-01-12T13:27:57.830Z,99642.38
2023-01-12T13:30:30.670Z,99641.94
2023-01-12T13:33:15.418Z,99638.88
2023-01-12T13:35:47.059Z,99638.88
2023-01-12T13:38:19.657Z,99652.06
2023-01-12T13:40:55.503Z,99652.66
2023-01-12T13:43:34.637Z,99660.06
2023-01-12T13:46:04.461Z,99661.31
2023-01-12T13:48:35.356Z,99661.47
2023-01-12T13:51:07.684Z,99666.84
2023-01-12T13:53:34.482Z,99655.72
2023-01-12T13:56:03.747Z,99666.03
2023-01-12T13:59:04.245Z,99655.34
2023-01-12T14:01:36.576Z,99659.06
2023-01-12T14:04:21.611Z,99657.78
2023-01-12T14:07:07.000Z,99651.22
2023-01-12T14:10:08.024Z,99662.94
2023-01-12T14:12:56.639Z,99660.88
2023-01-12T14:16:01.706Z,99666.03
2023-01-12T14:18:51.824Z,99676.91
2023-01-12T14:21:23.091Z,99674.25
2023-01-12T14:23:50.148Z,99667.91
2023-01-12T14:26:22.949Z,99673.03
2023-01-12T14:28:51.413Z,99678.13
2023-01-12T14:31:31.288Z,99683.72
2023-01-12T14:33:59.640Z,99677.16
2023-01-12T14:36:34.769Z,99681.84
2023-01-12T14:39:01.701Z,99684.75
2023-01-12T14:41:48.484Z,99703.47
2023-01-12T14:44:43.189Z,99703.03
2023-01-12T14:47:10.604Z,99693.19
2023-01-12T14:49:38.100Z,99698.13
2023-01-12T14:52:18.154Z,99697.91
2023-01-12T14:54:44.743Z,99690.09
2023-01-12T14:57:31.331Z,99698.91
2023-01-12T14:59:58.185Z,99703.88
2023-01-12T15:02:34.278Z,99707.34
2023-01-12T15:05:09.879Z,99702.00
2023-01-12T15:07:39.612Z,99704.50
2023-01-12T15:10:09.240Z,99693.00
2023-01-12T15:12:39.104Z,99712.13
2023-01-12T15:15:18.133Z,99707.78
2023-01-12T15:18:03.240Z,99705.53
2023-01-12T15:20:52.122Z,99703.03
2023-01-12T15:23:37.369Z,99709.41
2023-01-12T15:26:04.149Z,99702.44
2023-01-12T15:28:31.287Z,99701.19
2023-01-12T15:30:57.999Z,99701.59
2023-01-12T15:33:24.631Z,99710.25
2023-01-12T15:35:51.431Z,99698.72
2023-01-12T15:38:18.339Z,99714.75
2023-01-12T15:40:47.926Z,99705.28
2023-01-12T15:43:16.523Z,99713.72
2023-01-12T15:45:45.485Z,99707.59
2023-01-12T15:48:13.234Z,99690.09
2023-01-12T15:50:44.713Z,99695.66
2023-01-12T15:53:22.437Z,99703.22
2023-01-12T15:55:51.617Z,99693.56
2023-01-12T15:58:19.697Z,99688.06
2023-01-12T16:00:46.745Z,99693.00
2023-01-12T16:03:32.139Z,99704.91
2023-01-12T16:06:00.793Z,99686.44
2023-01-12T16:08:28.065Z,99678.81
2023-01-12T16:11:09.643Z,99684.16
2023-01-12T16:13:36.323Z,99680.06
2023-01-12T16:16:03.080Z,99683.53
2023-01-12T16:18:30.042Z,99681.66
2023-01-12T16:21:01.074Z,99666.50
2023-01-12T16:23:28.345Z,99674.06
2023-01-12T16:25:56.048Z,99687.66
2023-01-12T16:28:22.806Z,99681.88
2023-01-12T16:30:49.345Z,99689.06
2023-01-12T16:33:17.716Z,99681.28
2023-01-12T16:35:45.185Z,99672.38
2023-01-12T16:38:17.336Z,99670.78
2023-01-12T16:40:46.763Z,99672.00
2023-01-12T16:43:13.453Z,99664.41
2023-01-12T16:45:46.222Z,99665.66
2023-01-12T16:48:13.140Z,99664.03
2023-01-12T16:50:41.015Z,99670.41
2023-01-12T16:53:08.748Z,99650.19
2023-01-12T16:55:38.060Z,99670.41
2023-01-12T16:58:26.899Z,99675.50
2023-01-12T17:00:53.741Z,99673.06
2023-01-12T17:03:21.185Z,99669.97
2023-01-12T17:05:50.909Z,99656.84
2023-01-12T17:08:34.212Z,99661.13
2023-01-12T17:11:06.726Z,99657.41
2023-01-12T17:13:33.888Z,99645.72
2023-01-12T17:16:00.984Z,99632.19
2023-01-12T17:18:36.735Z,99628.63
2023-01-12T17:21:06.677Z,99626.78
2023-01-12T17:23:33.800Z,99622.47
2023-01-12T17:26:09.448Z,99624.78
2023-01-12T17:28:36.237Z,99608.31
2023-01-12T17:31:08.204Z,99621.69
2023-01-12T17:33:35.438Z,99618.97
2023-01-12T17:36:04.787Z,99620.59
2023-01-12T17:38:32.733Z,99615.13
2023-01-12T17:40:59.404Z,99616.09
2023-01-12T17:43:26.554Z,99613.88
2023-01-12T17:45:53.448Z,99606.66
2023-01-12T17:48:20.199Z,99601.53
2023-01-12T17:50:47.217Z,99592.09
2023-01-12T17:53:14.683Z,99620.47
2023-01-12T17:55:48.205Z,99607.69
2023-01-12T17:58:18.532Z,99603.41
2023-01-12T18:00:45.339Z,99605.66
2023-01-12T18:03:12.082Z,99603.19
2023-01-12T18:05:44.573Z,99602.34
2023-01-12T18:08:11.407Z,99608.13
2023-01-12T18:10:38.159Z,99604.22
2023-01-12T18:13:04.709Z,99605.84
2023-01-12T18:15:31.463Z,99601.75
2023-01-12T18:17:59.153Z,99606.69
2023-01-12T18:20:25.813Z,99599.25
2023-01-12T18:22:55.090Z,99609.53
2023-01-12T18:25:21.826Z,99591.25
2023-01-12T18:27:48.497Z,99602.78
2023-01-12T18:30:17.983Z,99610.38
2023-01-12T18:32:45.547Z,99597.81
2023-01-12T18:35:16.080Z,99581.78
2023-01-12T18:37:42.812Z,99598.25
2023-01-12T18:40:10.096Z,99588.00
2023-01-12T18:42:53.030Z,99617.81
2023-01-12T18:45:27.290Z,99595.63
2023-01-12T18:48:12.473Z,99594.38
2023-01-12T18:50:58.049Z,99583.50
2023-01-12T18:53:31.866Z,99589.63
2023-01-12T18:55:58.926Z,99573.63
2023-01-12T18:58:30.972Z,99595.19
2023-01-12T19:01:04.819Z,99611.00
2023-01-12T19:03:31.698Z,99607.94
2023-01-12T19:05:58.354Z,99609.59
2023-01-12T19:08:45.881Z,99593.38
2023-01-12T19:11:14.187Z,99582.06
2023-01-12T19:13:59.292Z,99585.38
2023-01-12T19:16:44.651Z,99580.41
2023-01-12T19:19:11.589Z,99585.78
2023-01-12T19:21:56.722Z,99583.31
2023-01-12T19:24:41.834Z,99579.63
2023-01-12T19:27:30.451Z,99582.47
2023-01-12T19:29:57.285Z,99599.72
2023-01-12T19:32:24.323Z,99595.63
2023-01-12T19:34:56.329Z,99601.16
2023-01-12T19:37:23.343Z,99615.56
2023-01-12T19:40:03.865Z,99615.97
2023-01-12T19:42:50.913Z,99604.44
2023-01-12T19:45:17.743Z,99622.91
2023-01-12T19:47:44.427Z,99626.66
2023-01-12T19:50:12.527Z,99617.00
2023-01-12T19:52:40.795Z,99626.44
2023-01-12T19:55:10.191Z,99634.66
2023-01-12T19:57:37.593Z,99649.25
2023-01-12T20:00:07.468Z,99638.19
2023-01-12T20:02:38.987Z,99629.09
2023-01-12T20:05:05.898Z,99644.50
2023-01-12T20:07:32.600Z,99649.84
2023-01-12T20:09:59.993Z,99649.88
2023-01-12T20:12:26.856Z,99640.66
2023-01-12T20:14:53.465Z,99640.63
2023-01-12T20:17:20.188Z,99642.91
2023-01-12T20:19:47.301Z,99655.22
2023-01-12T20:22:14.249Z,99656.03
2023-01-12T20:24:40.949Z,99660.16
2023-01-12T20:27:10.025Z,99661.78
2023-01-12T20:29:36.700Z,99662.41
2023-01-12T20:32:03.510Z,99661.78
2023-01-12T20:34:31.367Z,99649.25
2023-01-12T20:36:58.001Z,99656.00
2023-01-12T20:39:25.722Z,99656.88
2023-01-12T20:41:52.804Z,99645.75
2023-01-12T20:44:20.615Z,99654.41
2023-01-12T20:46:47.388Z,99663.22
2023-01-12T20:49:14.199Z,99655.19
2023-01-12T20:51:40.906Z,99652.72
2023-01-12T20:54:07.928Z,99655.22
2023-01-12T20:56:34.691Z,99646.56
2023-01-12T20:59:01.692Z,99655.84
2023-01-12T21:01:28.930Z,99648.03
2023-01-12T21:03:55.696Z,99668.56
2023-01-12T21:06:22.783Z,99658.28
2023-01-12T21:08:49.491Z,99656.03
2023-01-12T21:11:18.418Z,99673.06
2023-01-12T21:13:45.488Z,99678.63
2023-01-12T21:16:14.287Z,99674.50
2023-01-12T21:18:41.464Z,99689.09
2023-01-12T21:21:08.405Z,99678.84
2023-01-12T21:23:35.198Z,99683.56
2023-01-12T21:26:01.992Z,99663.03
2023-01-12T21:28:30.297Z,99670.19
2023-01-12T21:31:00.715Z,99665.66
2023-01-12T21:33:27.420Z,99685.19
2023-01-12T21:35:55.887Z,99923.97
2023-01-12T21:38:23.540Z,99965.06
2023-01-12T21:40:50.275Z,100000.34
2023-01-12T21:43:18.133Z,100029.34
2023-01-12T21:45:50.685Z,100028.78
2023-01-12T21:48:18.968Z,100031.22
2023-01-12T21:50:45.899Z,100042.50
2023-01-12T21:53:18.146Z,100040.28
2023-01-12T21:55:56.533Z,100043.38
2023-01-12T21:58:28.695Z,100040.88
2023-01-12T22:00:56.427Z,100065.13
2023-01-12T22:03:24.811Z,100043.53
2023-01-12T22:05:51.517Z,100055.88
2023-01-12T22:08:18.578Z,100052.63
2023-01-12T22:10:45.460Z,100057.53
2023-01-12T22:13:16.581Z,100053.84
2023-01-12T22:15:43.433Z,100060.03
2023-01-12T22:18:10.152Z,100056.09
2023-01-12T22:20:38.677Z,100070.94
2023-01-12T22:23:05.341Z,100060.91
2023-01-12T22:25:32.014Z,100075.84
2023-01-12T22:27:58.642Z,100065.78
2023-01-12T22:30:25.279Z,100064.97
2023-01-12T22:32:54.444Z,100066.84
2023-01-12T22:35:21.192Z,100091.47
2023-01-12T22:37:48.003Z,100073.78
2023-01-12T22:40:15.931Z,100084.72
2023-01-12T22:43:01.357Z,100076.31
2023-01-12T22:45:28.183Z,100077.75
2023-01-12T22:47:56.058Z,100082.69
2023-01-12T22:50:24.389Z,100076.50
2023-01-12T22:52:52.698Z,100083.72
2023-01-12T22:55:20.541Z,100088.03
2023-01-12T22:57:47.180Z,100081.88
2023-01-12T23:00:18.459Z,100094.13
2023-01-12T23:03:00.850Z,100076.72
2023-01-12T23:05:36.520Z,100072.75
2023-01-12T23:08:05.126Z,100063.94
2023-01-12T23:10:32.068Z,100079.38
2023-01-12T23:13:17.266Z,100063.16
2023-01-12T23:15:46.444Z,100088.03
2023-01-12T23:18:15.801Z,100079.00
2023-01-12T23:20:42.666Z,100070.19
2023-01-12T23:23:10.574Z,100074.47
2023-01-12T23:25:37.320Z,100079.44
2023-01-12T23:28:04.852Z,100077.78
2023-01-12T23:30:31.495Z,100078.44
2023-01-12T23:33:00.060Z,100080.25
2023-01-12T23:35:27.259Z,100071.63
2023-01-12T23:37:56.270Z,100078.56
2023-01-12T23:40:23.022Z,100081.88
2023-01-12T23:42:49.680Z,100080.56
2023-01-12T23:45:16.393Z,100085.28
2023-01-12T23:47:43.055Z,100069.81
2023-01-12T23:50:11.551Z,100072.72
2023-01-12T23:52:38.598Z,100084.34
2023-01-12T23:55:06.896Z,100073.72
2023-01-12T23:57:33.770Z,100066.97
